createdAt,value
2023-03-01T00:00:47.774Z,37.15
2023-03-01T00:03:52.435Z,32.45
2023-03-01T00:06:55.590Z,32.83
2023-03-01T00:09:59.193Z,34.30
2023-03-01T00:13:02.962Z,35.72
2023-03-01T00:16:08.266Z,31.95
2023-03-01T00:19:15.671Z,31.10
2023-03-01T00:22:19.459Z,28.15
2023-03-01T00:25:22.686Z,34.55
2023-03-01T00:28:26.127Z,28.52
2023-03-01T00:31:31.314Z,35.78
2023-03-01T00:34:35.508Z,31.75
2023-03-01T00:37:38.762Z,33.10
2023-03-01T00:40:45.044Z,29.37
2023-03-01T00:43:48.211Z,31.67
2023-03-01T00:46:51.843Z,31.05
2023-03-01T00:49:55.052Z,30.10
2023-03-01T00:52:58.541Z,26.92
2023-03-01T00:56:02.314Z,28.80
2023-03-01T00:59:05.965Z,28.50
2023-03-01T01:02:09.170Z,26.52
2023-03-01T01:05:13.392Z,30.48
2023-03-01T01:08:16.652Z,29.10
2023-03-01T01:11:21.466Z,27.73
2023-03-01T01:14:24.665Z,31.05
2023-03-01T01:17:28.188Z,31.98
2023-03-01T01:20:33.190Z,28.40
2023-03-01T01:23:38.984Z,26.02
2023-03-01T01:26:43.727Z,26.58
2023-03-01T01:29:47.255Z,25.45
2023-03-01T01:32:51.195Z,25.67
2023-03-01T01:35:54.874Z,26.73
2023-03-01T01:38:58.943Z,23.12
2023-03-01T01:42:03.184Z,23.67
2023-03-01T01:45:28.221Z,27.33
2023-03-01T01:48:46.322Z,23.02
2023-03-01T01:51:52.415Z,20.07
2023-03-01T01:55:05.252Z,22.92
2023-03-01T01:58:12.183Z,23.33
2023-03-01T02:01:17.471Z,24.37
2023-03-01T02:04:22.210Z,21.40
2023-03-01T02:07:26.064Z,21.85
2023-03-01T02:10:30.935Z,23.20
2023-03-01T02:13:36.603Z,21.63
2023-03-01T02:16:42.521Z,17.87
2023-03-01T02:20:08.192Z,21.12
2023-03-01T02:23:11.726Z,24.10
2023-03-01T02:26:33.435Z,20.75
2023-03-01T02:29:38.119Z,18.67
2023-03-01T02:32:43.727Z,20.17
2023-03-01T02:35:47.102Z,19.00
2023-03-01T02:38:55.053Z,20.30
2023-03-01T02:42:01.319Z,19.83
2023-03-01T02:45:06.569Z,20.30
2023-03-01T02:48:09.805Z,21.77
2023-03-01T02:51:51.778Z,23.65
2023-03-01T02:55:09.489Z,21.50
2023-03-01T02:58:13.464Z,22.15
2023-03-01T03:01:17.174Z,22.87
2023-03-01T03:04:22.194Z,19.70
2023-03-01T03:07:25.582Z,24.45
2023-03-01T03:10:35.000Z,17.60
2023-03-01T03:13:49.219Z,19.40
2023-03-01T03:16:53.131Z,18.73
2023-03-01T03:19:56.666Z,17.45
2023-03-01T03:23:00.853Z,21.85
2023-03-01T03:26:05.389Z,21.87
2023-03-01T03:29:08.868Z,25.90
2023-03-01T03:32:12.137Z,20.12
2023-03-01T03:35:15.578Z,20.73
2023-03-01T03:38:23.063Z,19.27
2023-03-01T03:41:26.471Z,20.23
2023-03-01T03:44:29.776Z,24.30
2023-03-01T03:47:33.410Z,26.27
2023-03-01T03:50:41.126Z,19.95
2023-03-01T03:53:45.579Z,19.60
2023-03-01T03:56:48.683Z,20.47
2023-03-01T03:59:52.295Z,22.30
2023-03-01T04:02:57.768Z,22.52
2023-03-01T04:06:02.066Z,21.05
2023-03-01T04:09:07.125Z,19.10
2023-03-01T04:12:11.602Z,20.55
2023-03-01T04:15:14.984Z,21.52
2023-03-01T04:18:20.840Z,22.53
2023-03-01T04:21:24.022Z,21.08
2023-03-01T04:24:27.530Z,22.92
2023-03-01T04:27:30.678Z,23.00
2023-03-01T04:30:38.188Z,19.95
2023-03-01T04:33:47.310Z,30.05
2023-03-01T04:36:50.892Z,21.12
2023-03-01T04:39:54.285Z,25.35
2023-03-01T04:42:57.775Z,23.35
2023-03-01T04:46:10.358Z,18.05
2023-03-01T04:49:14.079Z,20.43
2023-03-01T04:52:17.509Z,19.33
2023-03-01T04:55:21.070Z,20.92
2023-03-01T04:58:26.010Z,22.43
2023-03-01T05:01:29.528Z,27.15
2023-03-01T05:04:32.943Z,19.08
2023-03-01T05:07:36.294Z,20.80
2023-03-01T05:10:42.996Z,25.95
2023-03-01T05:13:46.873Z,23.42
2023-03-01T05:16:50.130Z,21.55
2023-03-01T05:19:53.708Z,22.97
2023-03-01T05:23:00.192Z,25.42
2023-03-01T05:26:07.546Z,21.08
2023-03-01T05:29:11.124Z,25.83
2023-03-01T05:32:16.924Z,29.77
2023-03-01T05:35:20.697Z,27.65
2023-03-01T05:38:24.252Z,25.77
2023-03-01T05:41:27.680Z,24.60
2023-03-01T05:44:32.584Z,25.15
2023-03-01T05:47:36.690Z,25.08
2023-03-01T05:50:45.577Z,25.83
2023-03-01T05:53:49.873Z,26.62
2023-03-01T05:56:53.761Z,22.50
2023-03-01T05:59:57.245Z,26.43
2023-03-01T06:03:01.383Z,29.77
2023-03-01T06:06:05.048Z,27.15
2023-03-01T06:09:10.355Z,25.12
2023-03-01T06:12:14.044Z,43.67
2023-03-01T06:15:17.959Z,46.70
2023-03-01T06:18:21.440Z,37.38
2023-03-01T06:21:24.603Z,32.60
2023-03-01T06:24:29.854Z,29.90
2023-03-01T06:27:32.878Z,29.40
2023-03-01T06:30:37.066Z,23.73
2023-03-01T06:33:40.260Z,22.95
2023-03-01T06:36:43.766Z,23.98
2023-03-01T06:39:47.122Z,25.95
2023-03-01T06:42:52.145Z,26.65
2023-03-01T06:45:55.398Z,24.35
2023-03-01T06:49:00.134Z,27.95
2023-03-01T06:52:03.453Z,25.77
2023-03-01T06:55:08.665Z,24.52
2023-03-01T06:58:13.081Z,24.95
2023-03-01T07:01:16.630Z,23.93
2023-03-01T07:04:19.989Z,22.45
2023-03-01T07:07:23.735Z,18.27
2023-03-01T07:10:29.577Z,22.48
2023-03-01T07:13:33.281Z,21.60
2023-03-01T07:16:36.633Z,20.05
2023-03-01T07:19:41.224Z,26.83
2023-03-01T07:22:44.325Z,21.67
2023-03-01T07:25:54.838Z,19.33
2023-03-01T07:29:00.596Z,21.77
2023-03-01T07:32:05.384Z,20.40
2023-03-01T07:35:09.032Z,21.92
2023-03-01T07:38:12.429Z,20.20
2023-03-01T07:41:15.979Z,19.98
2023-03-01T07:44:19.489Z,20.33
2023-03-01T07:47:22.654Z,17.95
2023-03-01T07:50:27.412Z,22.70
2023-03-01T07:53:31.974Z,28.60
2023-03-01T07:56:35.449Z,20.42
2023-03-01T07:59:39.092Z,20.40
2023-03-01T08:02:44.000Z,19.13
2023-03-01T08:05:47.472Z,23.23
2023-03-01T08:08:51.590Z,19.75
2023-03-01T08:11:55.637Z,22.77
2023-03-01T08:14:58.784Z,22.57
2023-03-01T08:18:02.374Z,23.98
2023-03-01T08:21:09.302Z,19.37
2023-03-01T08:24:12.840Z,21.48
2023-03-01T08:27:17.346Z,17.98
2023-03-01T08:30:25.101Z,21.50
2023-03-01T08:33:31.558Z,21.23
2023-03-01T08:36:38.386Z,16.60
2023-03-01T08:39:41.733Z,19.42
2023-03-01T08:42:45.443Z,18.20
2023-03-01T08:45:50.052Z,16.48
2023-03-01T08:48:53.509Z,17.30
2023-03-01T08:51:56.742Z,13.67
2023-03-01T08:55:02.498Z,17.15
2023-03-01T08:58:05.591Z,16.92
2023-03-01T09:01:13.313Z,14.02
2023-03-01T09:04:17.607Z,15.10
2023-03-01T09:07:21.199Z,13.63
2023-03-01T09:10:24.643Z,15.35
2023-03-01T09:13:32.171Z,14.15
2023-03-01T09:16:37.231Z,15.20
2023-03-01T09:19:40.885Z,15.32
2023-03-01T09:22:45.003Z,14.47
2023-03-01T09:25:48.703Z,15.50
2023-03-01T09:28:54.491Z,19.80
2023-03-01T09:31:58.168Z,15.30
2023-03-01T09:35:04.641Z,15.50
2023-03-01T09:38:08.201Z,18.20
2023-03-01T09:41:32.237Z,15.25
2023-03-01T09:45:02.096Z,14.70
2023-03-01T09:48:11.771Z,17.92
2023-03-01T09:51:20.637Z,14.98
2023-03-01T09:54:24.043Z,16.13
2023-03-01T09:57:51.984Z,16.42
2023-03-01T10:01:01.902Z,13.90
2023-03-01T10:04:29.785Z,14.68
2023-03-01T10:08:07.531Z,12.37
2023-03-01T10:11:41.509Z,14.97
2023-03-01T10:14:57.030Z,15.35
2023-03-01T10:18:20.868Z,15.18
2023-03-01T10:21:24.404Z,14.87
2023-03-01T10:24:32.974Z,14.30
2023-03-01T10:27:44.753Z,13.77
2023-03-01T10:30:48.546Z,15.63
2023-03-01T10:33:55.972Z,15.30
2023-03-01T10:37:13.690Z,19.75
2023-03-01T10:40:20.082Z,16.37
2023-03-01T10:43:26.824Z,17.50
2023-03-01T10:46:33.538Z,14.02
2023-03-01T10:49:37.444Z,14.85
2023-03-01T10:52:42.690Z,14.07
2023-03-01T10:55:46.306Z,13.82
2023-03-01T10:59:00.755Z,12.57
2023-03-01T11:02:25.105Z,13.30
2023-03-01T11:05:34.679Z,11.60
2023-03-01T11:08:43.030Z,14.87
2023-03-01T11:11:47.029Z,13.48
2023-03-01T11:14:59.960Z,20.13
2023-03-01T11:18:13.772Z,15.55
2023-03-01T11:21:18.206Z,13.75
2023-03-01T11:24:30.770Z,12.27
2023-03-01T11:27:39.891Z,14.77
2023-03-01T11:31:17.964Z,11.57
2023-03-01T11:34:34.866Z,13.25
2023-03-01T11:38:03.412Z,13.20
2023-03-01T11:41:14.193Z,12.65
2023-03-01T11:44:29.306Z,11.70
2023-03-01T11:48:15.912Z,11.70
2023-03-01T11:51:52.944Z,9.80
2023-03-01T11:55:14.837Z,10.35
2023-03-01T11:58:22.968Z,8.32
2023-03-01T12:01:50.814Z,10.25
2023-03-01T12:05:11.155Z,9.37
2023-03-01T12:08:23.150Z,12.57
2023-03-01T12:12:00.531Z,9.05
2023-03-01T12:15:42.013Z,11.75
2023-03-01T12:19:06.227Z,12.00
2023-03-01T12:22:24.474Z,9.40
2023-03-01T12:26:00.451Z,10.02
2023-03-01T12:29:03.580Z,9.63
2023-03-01T12:32:41.041Z,8.10
2023-03-01T12:36:21.415Z,8.85
2023-03-01T12:39:40.036Z,11.20
2023-03-01T12:43:11.595Z,10.82
2023-03-01T12:46:53.832Z,13.38
2023-03-01T12:50:24.732Z,10.45
2023-03-01T12:53:35.651Z,10.13
2023-03-01T12:56:40.346Z,9.63
2023-03-01T12:59:59.532Z,9.43
2023-03-01T13:03:08.720Z,11.18
2023-03-01T13:06:17.001Z,9.23
2023-03-01T13:09:32.173Z,9.32
2023-03-01T13:12:57.420Z,9.83
2023-03-01T13:16:40.112Z,9.55
2023-03-01T13:19:58.100Z,19.85
2023-03-01T13:23:09.525Z,11.15
2023-03-01T13:26:18.572Z,12.77
2023-03-01T13:29:28.641Z,8.90
2023-03-01T13:32:46.925Z,8.18
2023-03-01T13:35:50.888Z,8.43
2023-03-01T13:38:59.779Z,13.40
2023-03-01T13:42:03.065Z,11.35
2023-03-01T13:45:20.458Z,9.00
2023-03-01T13:48:26.977Z,8.38
2023-03-01T13:51:31.409Z,9.98
2023-03-01T13:54:34.595Z,7.28
2023-03-01T13:57:42.665Z,9.52
2023-03-01T14:01:02.957Z,7.70
2023-03-01T14:04:22.028Z,9.55
2023-03-01T14:07:25.886Z,8.07
2023-03-01T14:11:09.301Z,12.18
2023-03-01T14:14:51.647Z,9.43
2023-03-01T14:18:32.310Z,6.93
2023-03-01T14:21:37.703Z,8.75
2023-03-01T14:24:50.292Z,10.00
2023-03-01T14:27:58.935Z,12.15
2023-03-01T14:31:03.387Z,10.38
2023-03-01T14:34:07.167Z,9.13
2023-03-01T14:37:33.745Z,11.35
2023-03-01T14:40:38.459Z,10.13
2023-03-01T14:44:05.698Z,9.52
2023-03-01T14:47:16.162Z,11.50
2023-03-01T14:50:25.824Z,10.27
2023-03-01T14:53:37.658Z,9.43
2023-03-01T14:56:48.344Z,10.30
2023-03-01T14:59:55.828Z,8.07
2023-03-01T15:03:21.249Z,9.52
2023-03-01T15:06:24.933Z,8.67
2023-03-01T15:09:28.946Z,8.07
2023-03-01T15:12:41.273Z,10.77
2023-03-01T15:15:47.741Z,7.53
2023-03-01T15:18:54.294Z,8.25
2023-03-01T15:21:58.218Z,8.87
2023-03-01T15:25:01.704Z,7.85
2023-03-01T15:28:05.261Z,11.90
2023-03-01T15:31:24.983Z,9.48
2023-03-01T15:34:33.226Z,7.95
2023-03-01T15:37:48.870Z,9.80
2023-03-01T15:40:52.972Z,14.25
2023-03-01T15:43:56.948Z,11.00
2023-03-01T15:47:00.433Z,8.40
2023-03-01T15:50:04.149Z,11.70
2023-03-01T15:53:15.680Z,10.50
2023-03-01T15:56:18.852Z,12.23
2023-03-01T15:59:23.719Z,14.45
2023-03-01T16:02:27.465Z,16.02
2023-03-01T16:05:33.941Z,26.50
2023-03-01T16:08:38.048Z,40.77
2023-03-01T16:11:43.602Z,21.60
2023-03-01T16:14:49.774Z,20.67
2023-03-01T16:17:53.457Z,33.42
2023-03-01T16:21:01.967Z,15.10
2023-03-01T16:24:06.104Z,16.67
2023-03-01T16:27:09.438Z,13.98
2023-03-01T16:30:14.843Z,31.83
2023-03-01T16:33:29.232Z,28.10
2023-03-01T16:36:37.792Z,25.33
2023-03-01T16:39:41.073Z,25.00
2023-03-01T16:42:45.298Z,17.12
2023-03-01T16:45:48.849Z,26.20
2023-03-01T16:48:53.863Z,27.85
2023-03-01T16:51:57.100Z,27.67
2023-03-01T16:55:00.524Z,26.67
2023-03-01T16:58:05.916Z,35.75
2023-03-01T17:01:21.323Z,26.73
2023-03-01T17:04:27.187Z,27.13
2023-03-01T17:07:34.339Z,27.13
2023-03-01T17:10:38.403Z,31.80
2023-03-01T17:13:42.167Z,38.67
2023-03-01T17:16:46.089Z,39.47
2023-03-01T17:19:49.958Z,46.42
2023-03-01T17:22:53.459Z,49.63
2023-03-01T17:25:57.640Z,67.25
2023-03-01T17:29:01.442Z,62.78
2023-03-01T17:32:05.973Z,75.72
2023-03-01T17:35:12.226Z,54.00
2023-03-01T17:38:17.062Z,46.63
2023-03-01T17:41:22.091Z,47.30
2023-03-01T17:44:27.513Z,45.55
2023-03-01T17:47:31.015Z,55.67
2023-03-01T17:50:39.127Z,51.20
2023-03-01T17:53:43.350Z,45.80
2023-03-01T17:56:47.948Z,54.72
2023-03-01T17:59:51.215Z,74.68
2023-03-01T18:02:57.422Z,77.43
2023-03-01T18:06:02.778Z,67.30
2023-03-01T18:09:07.739Z,78.67
2023-03-01T18:12:11.751Z,62.15
2023-03-01T18:15:15.971Z,74.85
2023-03-01T18:18:21.218Z,81.20
2023-03-01T18:21:26.884Z,88.35
2023-03-01T18:24:32.026Z,89.22
2023-03-01T18:27:37.657Z,72.25
2023-03-01T18:30:43.927Z,79.75
2023-03-01T18:33:50.598Z,77.05
2023-03-01T18:37:09.226Z,78.82
2023-03-01T18:40:14.471Z,77.00
2023-03-01T18:43:21.546Z,68.95
2023-03-01T18:46:26.239Z,70.65
2023-03-01T18:49:32.510Z,62.27
2023-03-01T18:52:36.611Z,62.53
2023-03-01T18:55:41.444Z,74.97
2023-03-01T18:58:48.401Z,76.47
2023-03-01T19:01:55.309Z,80.93
2023-03-01T19:04:59.195Z,82.70
2023-03-01T19:08:03.501Z,80.95
2023-03-01T19:11:08.877Z,73.37
2023-03-01T19:14:13.308Z,79.22
2023-03-01T19:17:17.891Z,74.30
2023-03-01T19:20:23.090Z,84.83
2023-03-01T19:23:29.622Z,75.35
2023-03-01T19:26:36.118Z,72.37
2023-03-01T19:29:40.575Z,85.82
2023-03-01T19:32:45.655Z,74.03
2023-03-01T19:35:50.234Z,73.82
2023-03-01T19:38:55.138Z,76.53
2023-03-01T19:42:00.379Z,67.30
2023-03-01T19:45:06.865Z,73.90
2023-03-01T19:48:11.037Z,72.22
2023-03-01T19:51:16.086Z,61.00
2023-03-01T19:54:20.476Z,54.63
2023-03-01T19:57:26.114Z,59.83
2023-03-01T20:00:32.038Z,50.97
2023-03-01T20:03:37.677Z,49.45
2023-03-01T20:06:45.316Z,54.97
2023-03-01T20:09:52.188Z,71.20
2023-03-01T20:12:56.339Z,60.93
2023-03-01T20:16:00.931Z,74.10
2023-03-01T20:19:05.243Z,61.22
2023-03-01T20:22:23.003Z,59.13
2023-03-01T20:25:27.903Z,58.50
2023-03-01T20:28:36.304Z,62.78
2023-03-01T20:31:42.948Z,56.63
2023-03-01T20:34:48.098Z,65.90
2023-03-01T20:38:00.147Z,66.70
2023-03-01T20:41:09.376Z,64.80
2023-03-01T20:44:14.125Z,64.03
2023-03-01T20:47:23.817Z,65.12
2023-03-01T20:50:30.089Z,75.53
2023-03-01T20:53:37.036Z,84.83
2023-03-01T20:56:42.449Z,80.20
2023-03-01T20:59:47.822Z,62.67
2023-03-01T21:02:51.503Z,72.20
2023-03-01T21:06:00.988Z,61.00
2023-03-01T21:09:06.954Z,61.35
2023-03-01T21:12:14.783Z,62.80
2023-03-01T21:15:28.650Z,60.70
2023-03-01T21:18:37.494Z,66.25
2023-03-01T21:21:42.565Z,76.12
2023-03-01T21:24:46.600Z,66.27
2023-03-01T21:27:50.232Z,66.00
2023-03-01T21:30:54.764Z,67.60
2023-03-01T21:34:00.649Z,72.07
2023-03-01T21:37:05.185Z,71.32
2023-03-01T21:40:10.619Z,64.82
2023-03-01T21:43:17.769Z,62.70
2023-03-01T21:46:23.743Z,66.87
2023-03-01T21:49:27.639Z,67.32
2023-03-01T21:52:30.862Z,72.15
2023-03-01T21:55:34.588Z,59.13
2023-03-01T21:58:37.868Z,58.25
2023-03-01T22:01:41.644Z,56.72
2023-03-01T22:04:46.446Z,47.67
2023-03-01T22:07:49.550Z,45.50
2023-03-01T22:10:54.130Z,47.60
2023-03-01T22:13:57.337Z,42.85
2023-03-01T22:17:01.090Z,45.37
2023-03-01T22:20:05.225Z,47.17
2023-03-01T22:23:10.042Z,47.45
2023-03-01T22:26:25.587Z,54.87
2023-03-01T22:29:29.568Z,51.53
2023-03-01T22:32:33.143Z,48.10
2023-03-01T22:35:36.768Z,52.10
2023-03-01T22:38:40.100Z,50.30
2023-03-01T22:41:46.279Z,55.42
2023-03-01T22:44:49.525Z,49.78
2023-03-01T22:47:53.016Z,48.37
2023-03-01T22:50:57.115Z,57.08
2023-03-01T22:54:00.442Z,55.65
2023-03-01T22:57:04.227Z,64.13
2023-03-01T23:00:13.295Z,59.40
2023-03-01T23:03:18.157Z,65.57
2023-03-01T23:06:22.873Z,60.17
2023-03-01T23:09:32.935Z,57.33
2023-03-01T23:12:36.858Z,49.55
2023-03-01T23:15:45.002Z,51.80
2023-03-01T23:18:48.224Z,43.73
2023-03-01T23:21:54.467Z,47.95
2023-03-01T23:24:58.180Z,51.78
2023-03-01T23:28:00.986Z,54.33
2023-03-01T23:31:05.772Z,52.28
2023-03-01T23:34:08.767Z,50.60
2023-03-01T23:37:11.929Z,49.67
2023-03-01T23:40:14.995Z,49.20
2023-03-01T23:43:21.118Z,49.13
2023-03-01T23:46:27.470Z,50.12
2023-03-01T23:49:30.934Z,50.30
2023-03-01T23:52:39.826Z,49.72
2023-03-01T23:55:47.659Z,57.83
2023-03-01T23:58:50.932Z,59.90
